Time;durP1;ratioP1;P1;durP2;ratioP2;P2;SDS_P1;SDS_P2;PMS_P1;PMS_P2;Temp;Humidity;BMP_temperature;BMP_pressure;BME280_temperature;BME280_humidity;BME280_pressure;Samples;Min_cycle;Max_cycle;Signal;HPM_P1;HPM_P2
2021/06/29 00:01:13;;;;;;;;;;;20.00;82.90;;;;;;5085494;28;20395;-67
2021/06/29 00:03:39;;;;;;;;;;;20.00;83.00;;;;;;5072367;28;20404;-67
2021/06/29 00:06:04;;;;;;;;;;;20.00;83.30;;;;;;5083691;28;19912;-66
2021/06/29 00:08:30;;;;;;;;;;;19.90;83.80;;;;;;5076425;28;20353;-67
2021/06/29 00:10:55;;;;;;;;;;;19.70;84.30;;;;;;5058057;28;19916;-67
2021/06/29 00:13:21;;;;;;;;;;;19.60;84.90;;;;;;5076667;28;19916;-66
2021/06/29 00:15:47;;;;;;;;;;;19.50;84.00;;;;;;5080121;28;20286;-66
2021/06/29 00:18:13;;;;;;;;;;;19.50;84.80;;;;;;5081314;28;19928;-66
2021/06/29 00:20:38;;;;;;;;;;;19.50;84.70;;;;;;5082535;28;20392;-68
2021/06/29 00:23:04;;;;;;;;;;;19.50;84.40;;;;;;5079841;28;20288;-66
2021/06/29 00:25:29;;;;;;;;;;;19.70;83.90;;;;;;5079091;28;20316;-67
2021/06/29 00:27:55;;;;;;;;;;;19.80;83.50;;;;;;5074410;28;19912;-67
2021/06/29 00:30:20;;;;;;;;;;;19.90;83.10;;;;;;5082808;28;19938;-66
2021/06/29 00:32:46;;;;;;;;;;;19.90;83.00;;;;;;5057827;28;19955;-67
2021/06/29 00:35:12;;;;;;;;;;;19.90;82.90;;;;;;5080618;28;19946;-69
2021/06/29 00:37:37;;;;;;;;;;;19.90;83.10;;;;;;5080502;28;20369;-67
2021/06/29 00:40:04;;;;;;;;;;;19.90;83.20;;;;;;5083726;28;19974;-69
2021/06/29 00:42:29;;;;;;;;;;;19.90;83.30;;;;;;5080687;28;19959;-67
2021/06/29 00:44:55;;;;;;;;;;;19.90;83.20;;;;;;5083402;28;20300;-68
2021/06/29 00:47:21;;;;;;;;;;;19.90;83.50;;;;;;5079193;28;20256;-67
2021/06/29 00:49:47;;;;;;;;;;;19.90;83.30;;;;;;5078219;28;19916;-65
2021/06/29 00:52:13;;;;;;;;;;;20.00;83.20;;;;;;5080934;28;20386;-67
2021/06/29 00:54:39;;;;;;;;;;;20.00;83.10;;;;;;5081424;28;20483;-66
2021/06/29 00:57:06;;;;;;;;;;;20.00;82.70;;;;;;5081308;28;19924;-67
2021/06/29 00:59:32;;;;;;;;;;;20.00;82.60;;;;;;5078097;28;20437;-67
2021/06/29 01:01:57;;;;;;;;;;;20.00;82.80;;;;;;5075900;28;20134;-67
2021/06/29 01:04:23;;;;;;;;;;;20.00;82.90;;;;;;5080634;28;19976;-68
2021/06/29 01:06:49;;;;;;;;;;;20.00;83.00;;;;;;5082414;28;19912;-67
2021/06/29 01:09:14;;;;;;;;;;;19.90;83.30;;;;;;5080389;28;20113;-67
2021/06/29 01:11:40;;;;;;;;;;;19.80;83.20;;;;;;5074070;28;19958;-68
2021/06/29 01:14:10;;;;;;;;;;;19.80;83.40;;;;;;5083720;28;20422;-66
2021/06/29 01:16:36;;;;;;;;;;;19.80;83.50;;;;;;5077597;28;19974;-68
2021/06/29 01:19:01;;;;;;;;;;;19.80;83.40;;;;;;5077869;28;19956;-67
2021/06/29 01:21:33;;;;;;;;;;;19.70;84.10;;;;;;5072227;28;20325;-67
2021/06/29 01:24:00;;;;;;;;;;;19.70;83.70;;;;;;5083068;28;19974;-66
2021/06/29 01:26:29;;;;;;;;;;;19.70;83.90;;;;;;5067988;28;19923;-66
2021/06/29 01:29:01;;;;;;;;;;;19.70;84.00;;;;;;5076884;28;19923;-67
2021/06/29 01:31:27;;;;;;;;;;;19.60;84.30;;;;;;5082274;28;20053;-68
2021/06/29 01:33:52;;;;;;;;;;;19.60;84.50;;;;;;5078533;28;20038;-67
2021/06/29 01:36:19;;;;;;;;;;;19.60;84.40;;;;;;5076145;28;19916;-66
2021/06/29 01:38:46;;;;;;;;;;;19.50;84.00;;;;;;5080512;28;20328;-67
2021/06/29 01:41:12;;;;;;;;;;;19.60;83.90;;;;;;5074996;28;20178;-67
2021/06/29 01:43:45;;;;;;;;;;;19.50;84.50;;;;;;5075144;28;20296;-67
2021/06/29 01:46:11;;;;;;;;;;;19.50;83.70;;;;;;5080112;28;20408;-67
2021/06/29 01:48:36;;;;;;;;;;;19.50;84.40;;;;;;5075817;28;19978;-67
2021/06/29 01:51:02;;;;;;;;;;;19.50;84.90;;;;;;5083646;28;19992;-67
2021/06/29 01:53:27;;;;;;;;;;;19.40;85.90;;;;;;5077877;28;19912;-66
2021/06/29 01:55:53;;;;;;;;;;;19.40;85.30;;;;;;5084159;28;20096;-66
2021/06/29 01:58:23;;;;;;;;;;;19.40;84.70;;;;;;5083404;28;19912;-65
2021/06/29 02:00:49;;;;;;;;;;;19.30;85.40;;;;;;5073806;28;19912;-66
2021/06/29 02:03:14;;;;;;;;;;;19.40;85.50;;;;;;5081706;28;19923;-67
2021/06/29 02:05:40;;;;;;;;;;;19.30;85.20;;;;;;5084310;28;20019;-67
2021/06/29 02:08:05;;;;;;;;;;;19.30;86.00;;;;;;5083533;28;20399;-66
2021/06/29 02:10:31;;;;;;;;;;;19.30;85.30;;;;;;5074385;28;20227;-67
2021/06/29 02:12:58;;;;;;;;;;;19.30;84.60;;;;;;5075185;28;20394;-67
2021/06/29 02:15:23;;;;;;;;;;;19.20;86.30;;;;;;5084115;28;19912;-66
2021/06/29 02:17:49;;;;;;;;;;;19.30;86.60;;;;;;5080459;28;19917;-66
2021/06/29 02:20:16;;;;;;;;;;;19.30;86.60;;;;;;5082523;28;20429;-66
2021/06/29 02:22:42;;;;;;;;;;;19.30;86.50;;;;;;5078817;28;19932;-67
2021/06/29 02:25:08;;;;;;;;;;;19.30;85.90;;;;;;5076741;28;19993;-66
2021/06/29 02:27:33;;;;;;;;;;;19.20;85.50;;;;;;5082965;28;20371;-67
2021/06/29 02:29:59;;;;;;;;;;;19.30;85.80;;;;;;5082712;28;19961;-67
2021/06/29 02:32:25;;;;;;;;;;;19.30;86.20;;;;;;5072794;28;20031;-67
2021/06/29 02:34:50;;;;;;;;;;;19.30;85.80;;;;;;5083348;28;19927;-67
2021/06/29 02:37:16;;;;;;;;;;;19.40;85.80;;;;;;5083850;28;20019;-66
2021/06/29 02:39:41;;;;;;;;;;;19.40;85.80;;;;;;5083353;28;19931;-67
2021/06/29 02:42:07;;;;;;;;;;;19.40;85.10;;;;;;5075009;28;19912;-68
2021/06/29 02:44:34;;;;;;;;;;;19.40;85.10;;;;;;5082874;28;19938;-66
2021/06/29 02:46:59;;;;;;;;;;;19.40;84.60;;;;;;5084032;28;19988;-67
2021/06/29 02:49:25;;;;;;;;;;;19.50;84.90;;;;;;5082560;28;20013;-67
2021/06/29 02:51:50;;;;;;;;;;;19.40;85.70;;;;;;5079972;28;20015;-67
2021/06/29 02:54:16;;;;;;;;;;;19.40;85.60;;;;;;5068141;28;20279;-67
2021/06/29 02:56:41;;;;;;;;;;;19.40;86.30;;;;;;5073541;28;19988;-67
2021/06/29 02:59:11;;;;;;;;;;;19.40;85.40;;;;;;5081789;28;19919;-67
2021/06/29 03:01:37;;;;;;;;;;;19.40;86.00;;;;;;5066880;28;19912;-67
2021/06/29 03:04:03;;;;;;;;;;;19.40;86.10;;;;;;5067817;28;20034;-67
2021/06/29 03:06:28;;;;;;;;;;;19.40;86.40;;;;;;5067202;28;20015;-67
2021/06/29 03:08:54;;;;;;;;;;;19.40;86.00;;;;;;5073455;28;20059;-67
2021/06/29 03:11:19;;;;;;;;;;;19.50;86.20;;;;;;5083189;28;19912;-67
2021/06/29 03:13:45;;;;;;;;;;;19.50;85.70;;;;;;5070973;28;20052;-68
2021/06/29 03:16:11;;;;;;;;;;;19.50;85.40;;;;;;5070494;28;20222;-67
2021/06/29 03:18:37;;;;;;;;;;;19.50;85.50;;;;;;5079962;28;19920;-67
2021/06/29 03:21:02;;;;;;;;;;;19.50;85.30;;;;;;5072527;28;19912;-68
2021/06/29 03:23:28;;;;;;;;;;;19.50;85.50;;;;;;5080619;28;19912;-69
2021/06/29 03:25:53;;;;;;;;;;;19.50;85.50;;;;;;5086158;28;19997;-67
2021/06/29 03:28:19;;;;;;;;;;;19.60;85.60;;;;;;5087070;28;20410;-67
2021/06/29 03:30:44;;;;;;;;;;;19.60;85.50;;;;;;5085346;28;20031;-67
2021/06/29 03:33:10;;;;;;;;;;;19.60;85.20;;;;;;5072419;28;19981;-66
2021/06/29 03:35:35;;;;;;;;;;;19.60;85.20;;;;;;5075722;28;19940;-67
2021/06/29 03:38:01;;;;;;;;;;;19.60;84.80;;;;;;5081200;28;20003;-67
2021/06/29 03:40:27;;;;;;;;;;;19.70;85.00;;;;;;5086021;28;19930;-68
2021/06/29 03:42:52;;;;;;;;;;;19.70;84.40;;;;;;5080900;28;20336;-67
2021/06/29 03:45:18;;;;;;;;;;;19.70;84.40;;;;;;5075895;28;19960;-67
2021/06/29 03:47:43;;;;;;;;;;;19.70;84.70;;;;;;5077552;28;19972;-68
2021/06/29 03:50:09;;;;;;;;;;;19.60;84.40;;;;;;5074260;28;19948;-67
2021/06/29 03:52:35;;;;;;;;;;;19.60;84.50;;;;;;5075136;28;19924;-67
2021/06/29 03:55:01;;;;;;;;;;;19.70;84.50;;;;;;5074546;28;20046;-68
2021/06/29 03:57:26;;;;;;;;;;;19.60;84.40;;;;;;5081180;28;21462;-67
2021/06/29 03:59:54;;;;;;;;;;;19.60;84.30;;;;;;5082694;28;19989;-66
2021/06/29 04:02:20;;;;;;;;;;;19.70;84.10;;;;;;5059738;28;19988;-68
2021/06/29 04:04:45;;;;;;;;;;;19.70;84.20;;;;;;5072780;28;20357;-66
2021/06/29 04:07:11;;;;;;;;;;;19.70;84.20;;;;;;5085757;28;19912;-67
2021/06/29 04:09:40;;;;;;;;;;;19.80;83.70;;;;;;5083398;28;19916;-68
2021/06/29 04:12:06;;;;;;;;;;;19.90;83.60;;;;;;5081135;28;19956;-66
2021/06/29 04:14:31;;;;;;;;;;;20.00;83.70;;;;;;5079778;28;20644;-65
2021/06/29 04:16:57;;;;;;;;;;;20.00;83.80;;;;;;5073172;28;19985;-66
2021/06/29 04:19:23;;;;;;;;;;;20.00;83.50;;;;;;5077705;28;20009;-65
2021/06/29 04:21:49;;;;;;;;;;;20.00;83.40;;;;;;5078467;28;19951;-65
2021/06/29 04:24:14;;;;;;;;;;;20.00;83.60;;;;;;5079791;28;20023;-66
2021/06/29 04:26:40;;;;;;;;;;;19.90;83.40;;;;;;5082074;28;19919;-67
2021/06/29 04:29:06;;;;;;;;;;;19.90;83.50;;;;;;5084457;28;19920;-65
2021/06/29 04:31:31;;;;;;;;;;;20.00;83.70;;;;;;5081650;28;20324;-65
2021/06/29 04:33:57;;;;;;;;;;;20.00;83.50;;;;;;5070176;28;20031;-66
2021/06/29 04:36:22;;;;;;;;;;;20.00;83.20;;;;;;5083655;28;19965;-64
2021/06/29 04:38:48;;;;;;;;;;;20.10;83.10;;;;;;5061122;28;20219;-65
2021/06/29 04:41:13;;;;;;;;;;;20.10;83.00;;;;;;5084510;28;19916;-65
2021/06/29 04:43:42;;;;;;;;;;;20.20;83.10;;;;;;5080186;28;20371;-67
2021/06/29 04:46:08;;;;;;;;;;;20.30;82.80;;;;;;5077317;28;20056;-65
2021/06/29 04:48:36;;;;;;;;;;;20.40;82.60;;;;;;5084794;28;19972;-66
2021/06/29 04:51:02;;;;;;;;;;;20.50;82.50;;;;;;5085191;28;19928;-66
2021/06/29 04:53:28;;;;;;;;;;;20.50;82.60;;;;;;5084324;28;20336;-66
2021/06/29 04:55:53;;;;;;;;;;;20.50;82.10;;;;;;5084710;28;20012;-66
2021/06/29 04:58:19;;;;;;;;;;;20.60;82.00;;;;;;5083977;28;19926;-69
2021/06/29 05:00:45;;;;;;;;;;;20.60;82.30;;;;;;5082994;28;19923;-66
2021/06/29 05:03:11;;;;;;;;;;;20.70;81.70;;;;;;5075081;28;20131;-66
2021/06/29 05:05:37;;;;;;;;;;;20.70;81.80;;;;;;5079541;28;19921;-65
2021/06/29 05:08:02;;;;;;;;;;;20.80;81.80;;;;;;5078623;28;19931;-66
2021/06/29 05:10:28;;;;;;;;;;;20.80;81.80;;;;;;5076504;28;20470;-66
2021/06/29 05:12:54;;;;;;;;;;;20.80;81.80;;;;;;5072801;28;20447;-68
2021/06/29 05:15:19;;;;;;;;;;;20.90;81.60;;;;;;5075461;28;19973;-66
2021/06/29 05:17:45;;;;;;;;;;;20.80;81.80;;;;;;5076865;28;19920;-67
2021/06/29 05:20:11;;;;;;;;;;;20.80;81.90;;;;;;5077826;28;19931;-67
2021/06/29 05:22:37;;;;;;;;;;;20.80;82.00;;;;;;5078746;28;19997;-67
2021/06/29 05:25:03;;;;;;;;;;;20.80;82.00;;;;;;5079939;28;19932;-66
2021/06/29 05:27:29;;;;;;;;;;;20.80;82.50;;;;;;5073646;28;19947;-66
2021/06/29 05:29:56;;;;;;;;;;;20.80;82.40;;;;;;5071477;28;19998;-65
2021/06/29 05:32:21;;;;;;;;;;;20.90;82.90;;;;;;5072624;28;19920;-66
2021/06/29 05:34:46;;;;;;;;;;;21.00;82.60;;;;;;5066286;28;20229;-66
2021/06/29 05:37:12;;;;;;;;;;;21.00;82.00;;;;;;5076736;28;20041;-67
2021/06/29 05:39:37;;;;;;;;;;;21.00;82.30;;;;;;5065014;28;20343;-67
2021/06/29 05:42:03;;;;;;;;;;;21.10;81.80;;;;;;5081081;28;19998;-66
2021/06/29 05:44:28;;;;;;;;;;;21.10;81.80;;;;;;5076670;28;20334;-67
2021/06/29 05:46:56;;;;;;;;;;;21.10;81.80;;;;;;5077730;28;20014;-64
2021/06/29 05:49:21;;;;;;;;;;;21.20;82.30;;;;;;5053452;28;19923;-66
2021/06/29 05:51:47;;;;;;;;;;;21.10;81.60;;;;;;5083309;28;19920;-67
2021/06/29 05:54:13;;;;;;;;;;;21.20;81.90;;;;;;5083590;28;19983;-66
2021/06/29 05:56:40;;;;;;;;;;;21.30;81.60;;;;;;5081822;28;20225;-66
2021/06/29 05:59:06;;;;;;;;;;;21.30;81.70;;;;;;5049439;28;19946;-66
2021/06/29 06:01:32;;;;;;;;;;;21.40;81.50;;;;;;5083838;28;20254;-68
2021/06/29 06:03:58;;;;;;;;;;;21.60;81.70;;;;;;5083667;28;20227;-66
2021/06/29 06:06:23;;;;;;;;;;;21.50;81.30;;;;;;5067577;28;19931;-66
2021/06/29 06:08:48;;;;;;;;;;;21.50;80.90;;;;;;5073090;28;20275;-66
2021/06/29 06:11:14;;;;;;;;;;;21.70;80.90;;;;;;5083408;28;20082;-67
2021/06/29 06:13:39;;;;;;;;;;;21.80;80.50;;;;;;5079646;28;19916;-66
2021/06/29 06:16:05;;;;;;;;;;;22.00;80.20;;;;;;5076897;28;20026;-67
2021/06/29 06:18:31;;;;;;;;;;;22.10;79.80;;;;;;5082004;28;20007;-67
2021/06/29 06:20:56;;;;;;;;;;;22.20;79.40;;;;;;5082305;28;19916;-66
2021/06/29 06:23:22;;;;;;;;;;;22.50;79.00;;;;;;5078714;28;19951;-69
2021/06/29 06:25:47;;;;;;;;;;;22.60;78.80;;;;;;5081094;28;20014;-67
2021/06/29 06:28:13;;;;;;;;;;;22.60;78.60;;;;;;5079274;28;20337;-67
2021/06/29 06:30:40;;;;;;;;;;;22.70;78.00;;;;;;5075323;28;20389;-67
2021/06/29 06:33:05;;;;;;;;;;;22.90;78.30;;;;;;5071448;28;20095;-66
2021/06/29 06:35:31;;;;;;;;;;;23.00;77.20;;;;;;5074821;28;20007;-67
2021/06/29 06:37:57;;;;;;;;;;;23.00;78.00;;;;;;5081385;28;19931;-66
2021/06/29 06:40:22;;;;;;;;;;;23.00;78.00;;;;;;5074899;28;19964;-66
2021/06/29 06:42:48;;;;;;;;;;;23.10;76.90;;;;;;5073186;28;19923;-67
2021/06/29 06:45:14;;;;;;;;;;;23.00;77.20;;;;;;5078487;28;20000;-66
2021/06/29 06:47:39;;;;;;;;;;;23.00;78.30;;;;;;5079957;28;19931;-67
2021/06/29 06:50:06;;;;;;;;;;;22.80;78.20;;;;;;5082751;28;20256;-67
2021/06/29 06:52:33;;;;;;;;;;;22.90;77.10;;;;;;5082050;28;19919;-67
2021/06/29 06:54:59;;;;;;;;;;;22.90;78.50;;;;;;5083157;28;20348;-67
2021/06/29 06:57:24;;;;;;;;;;;22.60;78.20;;;;;;5082115;28;19913;-66
2021/06/29 06:59:50;;;;;;;;;;;22.60;78.30;;;;;;5066055;28;19912;-67
2021/06/29 07:02:15;;;;;;;;;;;22.60;78.00;;;;;;5075168;28;19997;-67
2021/06/29 07:04:41;;;;;;;;;;;22.60;78.30;;;;;;5070694;28;19974;-66
2021/06/29 07:07:06;;;;;;;;;;;22.60;78.30;;;;;;5082243;28;19916;-66
2021/06/29 07:09:32;;;;;;;;;;;22.60;78.20;;;;;;5082516;28;19938;-67
2021/06/29 07:11:58;;;;;;;;;;;23.00;77.90;;;;;;5072764;28;19916;-65
2021/06/29 07:14:24;;;;;;;;;;;23.00;77.30;;;;;;5075788;28;19917;-69
2021/06/29 07:16:49;;;;;;;;;;;23.00;77.00;;;;;;5082458;28;19935;-68
2021/06/29 07:19:15;;;;;;;;;;;23.20;77.30;;;;;;5081831;28;19985;-67
2021/06/29 07:21:41;;;;;;;;;;;23.20;77.20;;;;;;5070838;28;19977;-68
2021/06/29 07:24:07;;;;;;;;;;;23.20;77.30;;;;;;5076131;28;20022;-68
2021/06/29 07:26:32;;;;;;;;;;;23.20;76.70;;;;;;5071249;28;20384;-67
2021/06/29 07:28:58;;;;;;;;;;;23.20;77.20;;;;;;5075269;28;19924;-67
2021/06/29 07:31:23;;;;;;;;;;;23.20;77.90;;;;;;5083661;28;20057;-67
2021/06/29 07:33:49;;;;;;;;;;;23.20;77.20;;;;;;5082620;28;19922;-67
2021/06/29 07:36:16;;;;;;;;;;;23.30;77.50;;;;;;5072596;28;20027;-68
2021/06/29 07:38:44;;;;;;;;;;;23.50;77.10;;;;;;5069281;28;19989;-67
2021/06/29 07:41:11;;;;;;;;;;;23.50;76.30;;;;;;5078005;28;19942;-67
2021/06/29 07:43:36;;;;;;;;;;;23.50;76.80;;;;;;5081598;28;19973;-68
2021/06/29 07:46:02;;;;;;;;;;;23.50;76.10;;;;;;5080508;28;20106;-69
2021/06/29 07:48:27;;;;;;;;;;;23.60;76.20;;;;;;5076832;28;19912;-67
2021/06/29 07:50:54;;;;;;;;;;;23.50;76.20;;;;;;5080770;28;20184;-67
2021/06/29 07:53:20;;;;;;;;;;;23.60;76.00;;;;;;5077787;28;20477;-67
2021/06/29 07:55:45;;;;;;;;;;;23.50;76.50;;;;;;5082660;28;20162;-67
2021/06/29 07:58:11;;;;;;;;;;;23.30;76.90;;;;;;5082265;28;20379;-68
2021/06/29 08:00:36;;;;;;;;;;;23.30;76.80;;;;;;5071603;28;19981;-67
2021/06/29 08:03:03;;;;;;;;;;;23.50;77.60;;;;;;5078014;28;19920;-67
2021/06/29 08:05:28;;;;;;;;;;;23.50;77.70;;;;;;5067101;28;19984;-68
2021/06/29 08:07:54;;;;;;;;;;;23.40;76.80;;;;;;5073907;28;19996;-69
2021/06/29 08:10:19;;;;;;;;;;;23.20;77.20;;;;;;5082055;28;19991;-68
2021/06/29 08:12:45;;;;;;;;;;;23.30;77.90;;;;;;5081679;28;19961;-67
2021/06/29 08:15:11;;;;;;;;;;;23.10;77.50;;;;;;5074587;28;20014;-67
2021/06/29 08:17:37;;;;;;;;;;;23.10;78.60;;;;;;5081182;28;19924;-68
2021/06/29 08:20:02;;;;;;;;;;;23.20;78.70;;;;;;5077391;28;19962;-69
2021/06/29 08:22:28;;;;;;;;;;;23.10;78.60;;;;;;5078395;28;19938;-67
2021/06/29 08:24:54;;;;;;;;;;;23.00;78.70;;;;;;5078050;28;19953;-66
2021/06/29 08:27:19;;;;;;;;;;;23.00;78.80;;;;;;5074450;28;19920;-68
2021/06/29 08:29:46;;;;;;;;;;;23.00;78.10;;;;;;5075536;28;19942;-68
2021/06/29 08:32:12;;;;;;;;;;;22.80;78.80;;;;;;5079463;28;19916;-68
2021/06/29 08:34:38;;;;;;;;;;;23.00;79.80;;;;;;5078186;28;20014;-67
2021/06/29 08:37:03;;;;;;;;;;;22.70;80.40;;;;;;5085706;28;20373;-68
2021/06/29 08:39:29;;;;;;;;;;;22.70;81.90;;;;;;5083508;28;20029;-66
2021/06/29 08:41:55;;;;;;;;;;;22.80;80.60;;;;;;5076735;28;20004;-68
2021/06/29 08:44:20;;;;;;;;;;;22.90;81.40;;;;;;5080978;28;19916;-69
2021/06/29 08:46:46;;;;;;;;;;;22.90;81.80;;;;;;5082667;28;20017;-67
2021/06/29 08:49:14;;;;;;;;;;;22.70;82.40;;;;;;5080090;28;19912;-67
2021/06/29 08:51:40;;;;;;;;;;;22.60;83.50;;;;;;5083351;28;19920;-67
2021/06/29 08:54:06;;;;;;;;;;;22.50;83.40;;;;;;5083126;28;19923;-67
2021/06/29 08:56:32;;;;;;;;;;;22.20;83.90;;;;;;5085685;28;19938;-67
2021/06/29 08:58:59;;;;;;;;;;;22.20;84.40;;;;;;5084502;28;19916;-67
2021/06/29 09:01:27;;;;;;;;;;;22.20;84.70;;;;;;5080403;28;20311;-68
2021/06/29 09:03:52;;;;;;;;;;;22.20;84.50;;;;;;5077099;28;19991;-67
2021/06/29 09:06:28;;;;;;;;;;;22.30;84.70;;;;;;5084060;28;19912;-67
2021/06/29 09:08:53;;;;;;;;;;;22.40;84.20;;;;;;5078474;28;19970;-68
2021/06/29 09:11:19;;;;;;;;;;;22.50;83.90;;;;;;5083510;28;19951;-68
2021/06/29 09:14:03;;;;;;;;;;;22.50;84.00;;;;;;5078016;28;19913;-67
2021/06/29 09:16:28;;;;;;;;;;;22.50;83.70;;;;;;5080628;28;19959;-69
2021/06/29 09:18:54;;;;;;;;;;;22.60;84.50;;;;;;5080455;28;20148;-69
2021/06/29 09:21:21;;;;;;;;;;;22.60;83.90;;;;;;5078671;28;19958;-67
2021/06/29 09:23:50;;;;;;;;;;;22.70;84.30;;;;;;5079128;28;19966;-67
2021/06/29 09:26:18;;;;;;;;;;;22.50;82.10;;;;;;5080330;28;19920;-67
2021/06/29 09:28:47;;;;;;;;;;;22.50;82.90;;;;;;5067639;28;20229;-67
2021/06/29 09:31:21;;;;;;;;;;;22.50;83.40;;;;;;5064447;28;19924;-66
2021/06/29 09:33:51;;;;;;;;;;;22.50;84.30;;;;;;5080760;28;19920;-67
2021/06/29 09:36:18;;;;;;;;;;;22.20;84.30;;;;;;5081347;28;20241;-67
2021/06/29 09:38:45;;;;;;;;;;;22.20;85.20;;;;;;5071107;28;20387;-66
2021/06/29 09:41:14;;;;;;;;;;;22.20;86.40;;;;;;5078568;28;19916;-67
2021/06/29 09:43:40;;;;;;;;;;;22.20;86.50;;;;;;5064384;28;19930;-68
2021/06/29 09:46:08;;;;;;;;;;;22.20;87.00;;;;;;5081901;28;19920;-67
2021/06/29 09:48:35;;;;;;;;;;;22.10;86.40;;;;;;5078824;28;19945;-63
2021/06/29 09:51:11;;;;;;;;;;;22.10;87.30;;;;;;5076973;28;19989;-66
2021/06/29 09:53:42;;;;;;;;;;;22.00;86.80;;;;;;5083615;28;19924;-67
2021/06/29 09:56:11;;;;;;;;;;;22.10;87.80;;;;;;5079717;28;19912;-67
2021/06/29 09:58:38;;;;;;;;;;;22.20;86.30;;;;;;5077435;28;20011;-67
2021/06/29 10:01:04;;;;;;;;;;;22.20;86.70;;;;;;5082120;28;20347;-67
2021/06/29 10:03:35;;;;;;;;;;;22.40;87.10;;;;;;5082005;28;19912;-67
2021/06/29 10:06:02;;;;;;;;;;;22.20;87.00;;;;;;5072377;28;19931;-66
2021/06/29 10:08:29;;;;;;;;;;;22.50;87.10;;;;;;5081204;28;20053;-66
2021/06/29 10:11:05;;;;;;;;;;;22.70;87.20;;;;;;5084344;28;19958;-67
2021/06/29 10:13:35;;;;;;;;;;;22.80;86.00;;;;;;5081680;28;20386;-66
2021/06/29 10:16:01;;;;;;;;;;;23.00;86.30;;;;;;5079257;28;20391;-67
2021/06/29 10:18:28;;;;;;;;;;;22.90;84.60;;;;;;5082790;28;20006;-67
2021/06/29 10:20:57;;;;;;;;;;;23.10;85.20;;;;;;5078125;28;20027;-67
2021/06/29 10:23:22;;;;;;;;;;;23.00;82.40;;;;;;5071993;28;20473;-66
2021/06/29 10:25:49;;;;;;;;;;;22.70;79.90;;;;;;5080122;28;19992;-67
2021/06/29 10:28:16;;;;;;;;;;;22.50;79.90;;;;;;5080677;28;19928;-67
2021/06/29 10:30:41;;;;;;;;;;;22.60;81.70;;;;;;5080272;28;20093;-67
2021/06/29 10:33:08;;;;;;;;;;;22.60;80.40;;;;;;5080867;28;19920;-66
2021/06/29 10:35:34;;;;;;;;;;;22.60;82.50;;;;;;5083116;28;20052;-66
2021/06/29 10:38:00;;;;;;;;;;;22.70;84.40;;;;;;5083727;28;19931;-66
2021/06/29 10:40:26;;;;;;;;;;;22.60;83.70;;;;;;5082660;28;19916;-67
2021/06/29 10:42:56;;;;;;;;;;;22.80;83.40;;;;;;5076953;28;19924;-66
2021/06/29 10:45:21;;;;;;;;;;;22.90;81.40;;;;;;5083494;28;19916;-67
2021/06/29 10:47:47;;;;;;;;;;;22.80;82.30;;;;;;5080665;28;19919;-68
2021/06/29 10:50:14;;;;;;;;;;;22.80;81.10;;;;;;5081013;28;20191;-67
2021/06/29 10:52:41;;;;;;;;;;;22.90;80.10;;;;;;5080385;28;19913;-66
2021/06/29 10:55:18;;;;;;;;;;;23.00;81.90;;;;;;5070720;28;19942;-66
2021/06/29 10:57:45;;;;;;;;;;;23.10;83.70;;;;;;5068970;28;19919;-66
2021/06/29 11:00:22;;;;;;;;;;;23.10;82.10;;;;;;5064639;28;19919;-67
2021/06/29 11:02:58;;;;;;;;;;;23.00;82.00;;;;;;5070913;28;20006;-66
2021/06/29 11:05:53;;;;;;;;;;;22.90;81.30;;;;;;5075448;28;20016;-66
2021/06/29 11:08:27;;;;;;;;;;;23.10;82.60;;;;;;5056578;28;19927;-66
2021/06/29 11:10:53;;;;;;;;;;;23.20;82.00;;;;;;5066506;28;19924;-66
2021/06/29 11:13:38;;;;;;;;;;;23.10;82.40;;;;;;5060786;28;19918;-67
2021/06/29 11:16:03;;;;;;;;;;;23.20;82.60;;;;;;5084207;28;20034;-66
2021/06/29 11:18:41;;;;;;;;;;;23.00;82.50;;;;;;5080143;28;19959;-66
2021/06/29 11:21:08;;;;;;;;;;;23.00;84.40;;;;;;5079694;28;20035;-66
2021/06/29 11:23:34;;;;;;;;;;;23.20;83.00;;;;;;5075829;28;19934;-66
2021/06/29 11:26:20;;;;;;;;;;;23.10;82.70;;;;;;5073970;28;19924;-67
2021/06/29 11:28:48;;;;;;;;;;;23.00;80.90;;;;;;5074717;28;19959;-67
2021/06/29 11:31:20;;;;;;;;;;;22.90;83.20;;;;;;5045984;28;19917;-67
2021/06/29 11:33:50;;;;;;;;;;;23.20;83.50;;;;;;5073184;28;19953;-68
2021/06/29 11:36:21;;;;;;;;;;;23.60;83.60;;;;;;5073528;28;20078;-67
2021/06/29 11:38:47;;;;;;;;;;;23.80;82.20;;;;;;5078573;28;19916;-67
2021/06/29 11:41:28;;;;;;;;;;;23.80;77.40;;;;;;5056636;28;19916;-67
2021/06/29 11:43:53;;;;;;;;;;;24.00;79.90;;;;;;5069287;28;20207;-67
2021/06/29 11:46:37;;;;;;;;;;;23.80;77.40;;;;;;5077099;28;19966;-68
2021/06/29 11:49:07;;;;;;;;;;;24.10;77.60;;;;;;5085679;28;20072;-66
2021/06/29 11:51:47;;;;;;;;;;;23.90;74.80;;;;;;5076131;28;20002;-67
2021/06/29 11:54:24;;;;;;;;;;;23.80;76.20;;;;;;5076123;28;19997;-66
2021/06/29 11:56:50;;;;;;;;;;;23.40;77.10;;;;;;5081446;28;19938;-67
2021/06/29 11:59:23;;;;;;;;;;;23.10;76.50;;;;;;5073002;28;20039;-67
2021/06/29 12:01:57;;;;;;;;;;;23.00;78.40;;;;;;5068458;28;19916;-67
2021/06/29 12:04:23;;;;;;;;;;;22.80;78.20;;;;;;5081497;28;19916;-67
2021/06/29 12:07:08;;;;;;;;;;;22.50;80.40;;;;;;5076980;28;20605;-68
2021/06/29 12:09:34;;;;;;;;;;;22.40;83.00;;;;;;5079809;28;19912;-67
2021/06/29 12:12:19;;;;;;;;;;;22.00;83.60;;;;;;5079653;28;19981;-66
2021/06/29 12:14:45;;;;;;;;;;;21.90;84.60;;;;;;5082767;28;20227;-67
2021/06/29 12:17:11;;;;;;;;;;;21.80;85.00;;;;;;5062799;28;19923;-66
2021/06/29 12:19:37;;;;;;;;;;;21.70;86.50;;;;;;5081552;28;19919;-66
2021/06/29 12:22:02;;;;;;;;;;;21.50;86.30;;;;;;5082125;28;19927;-67
2021/06/29 12:24:28;;;;;;;;;;;21.50;86.80;;;;;;5080503;28;19924;-66
2021/06/29 12:26:53;;;;;;;;;;;21.50;87.30;;;;;;5076721;28;19920;-66
2021/06/29 12:29:36;;;;;;;;;;;21.50;86.50;;;;;;5085113;28;19968;-68
2021/06/29 12:32:18;;;;;;;;;;;21.50;87.30;;;;;;5076778;28;19920;-67
2021/06/29 12:34:44;;;;;;;;;;;21.50;88.20;;;;;;5060569;28;20312;-67
2021/06/29 12:37:09;;;;;;;;;;;21.50;87.70;;;;;;5081294;28;19920;-67
2021/06/29 12:39:35;;;;;;;;;;;21.60;88.40;;;;;;5071376;28;20023;-68
2021/06/29 12:42:06;;;;;;;;;;;21.60;86.90;;;;;;5078557;28;19928;-69
2021/06/29 12:44:32;;;;;;;;;;;21.60;85.70;;;;;;5079200;28;19992;-67
2021/06/29 12:46:57;;;;;;;;;;;21.80;85.40;;;;;;5077920;28;19962;-67
2021/06/29 12:49:24;;;;;;;;;;;22.10;85.10;;;;;;5077920;28;19995;-67
2021/06/29 12:52:03;;;;;;;;;;;22.30;84.70;;;;;;5076117;28;20634;-67
2021/06/29 12:54:31;;;;;;;;;;;22.30;84.40;;;;;;5076527;28;20226;-67
2021/06/29 12:56:57;;;;;;;;;;;22.80;83.60;;;;;;5073306;28;19928;-67
2021/06/29 12:59:27;;;;;;;;;;;23.00;83.40;;;;;;5077776;28;20000;-68
2021/06/29 13:01:55;;;;;;;;;;;22.80;78.50;;;;;;5076714;28;19912;-67
2021/06/29 13:04:24;;;;;;;;;;;23.00;81.10;;;;;;5075021;28;19963;-69
2021/06/29 13:06:59;;;;;;;;;;;22.90;82.00;;;;;;5071052;28;19926;-67
2021/06/29 13:09:29;;;;;;;;;;;22.70;78.20;;;;;;5067255;28;19924;-67
2021/06/29 13:12:07;;;;;;;;;;;22.50;79.50;;;;;;5078184;28;19970;-67
2021/06/29 13:14:33;;;;;;;;;;;22.40;80.40;;;;;;5072104;28;19939;-69
2021/06/29 13:17:00;;;;;;;;;;;22.50;80.90;;;;;;5074605;28;20000;-67
2021/06/29 13:19:25;;;;;;;;;;;22.50;83.80;;;;;;5079860;28;19912;-68
2021/06/29 13:21:59;;;;;;;;;;;22.50;79.20;;;;;;5078696;28;20012;-68
2021/06/29 13:24:25;;;;;;;;;;;22.50;77.90;;;;;;5067718;28;20177;-67
2021/06/29 13:27:04;;;;;;;;;;;22.60;81.20;;;;;;5073114;28;20461;-65
2021/06/29 13:29:32;;;;;;;;;;;22.60;79.80;;;;;;5078741;28;19939;-66
2021/06/29 13:31:58;;;;;;;;;;;22.60;79.10;;;;;;5078999;28;19974;-65
2021/06/29 13:34:25;;;;;;;;;;;23.00;81.40;;;;;;5056471;28;19950;-65
2021/06/29 13:36:50;;;;;;;;;;;23.00;78.90;;;;;;5080943;28;19912;-65
2021/06/29 13:39:23;;;;;;;;;;;23.10;80.20;;;;;;5075599;28;19916;-65
2021/06/29 13:41:48;;;;;;;;;;;23.20;79.60;;;;;;5077166;28;19912;-65
2021/06/29 13:44:14;;;;;;;;;;;23.20;79.70;;;;;;5068541;28;20333;-66
2021/06/29 13:46:43;;;;;;;;;;;23.40;79.40;;;;;;5075776;28;20393;-66
2021/06/29 13:49:13;;;;;;;;;;;23.20;75.80;;;;;;5070710;28;19958;-65
2021/06/29 13:51:38;;;;;;;;;;;23.50;78.60;;;;;;5077727;28;20887;-64
2021/06/29 13:54:13;;;;;;;;;;;23.80;75.90;;;;;;5068035;28;20057;-66
2021/06/29 13:56:38;;;;;;;;;;;24.00;73.80;;;;;;5073335;28;19935;-66
2021/06/29 13:59:05;;;;;;;;;;;24.00;72.90;;;;;;5070917;28;19916;-65
2021/06/29 14:01:32;;;;;;;;;;;24.00;72.10;;;;;;5076111;28;20422;-66
2021/06/29 14:04:01;;;;;;;;;;;24.10;73.20;;;;;;5065661;28;20031;-67
2021/06/29 14:06:27;;;;;;;;;;;24.10;74.40;;;;;;5078115;28;20363;-66
2021/06/29 14:09:04;;;;;;;;;;;24.20;73.60;;;;;;5071973;28;19927;-66
2021/06/29 14:11:34;;;;;;;;;;;24.10;71.50;;;;;;5074390;28;19982;-68
2021/06/29 14:14:01;;;;;;;;;;;24.50;68.90;;;;;;5071690;28;20524;-67
2021/06/29 14:16:26;;;;;;;;;;;25.00;68.60;;;;;;5072712;28;19916;-67